Time;durP1;ratioP1;P1;durP2;ratioP2;P2;SDS_P1;SDS_P2;PMS_P1;PMS_P2;Temp;Humidity;BMP_temperature;BMP_pressure;BME280_temperature;BME280_humidity;BME280_pressure;Samples;Min_cycle;Max_cycle;Signal;HPM_P1;HPM_P2
2023/05/18 00:01:48;;;;;;;1.00;0.70;;;;;;;9.97;71.39;98031.72;1686951;75;1898805;-73
2023/05/18 00:04:22;;;;;;;1.25;0.50;;;;;;;10.00;70.99;98025.31;1710268;75;673879;-73
2023/05/18 00:06:55;;;;;;;0.65;0.50;;;;;;;9.99;70.62;98024.56;1700931;75;745471;-72
2023/05/18 00:09:26;;;;;;;0.85;0.60;;;;;;;9.95;70.92;98020.47;1709759;75;674951;-71
2023/05/18 00:11:56;;;;;;;0.65;0.50;;;;;;;9.91;71.87;98019.88;1700654;75;755000;-70
2023/05/18 00:14:27;;;;;;;0.40;0.40;;;;;;;9.97;71.82;98020.78;1698443;75;1691153;-71
2023/05/18 00:17:01;;;;;;;0.85;0.65;;;;;;;9.95;70.40;98021.25;1701311;75;755136;-73
2023/05/18 00:19:33;;;;;;;0.60;0.40;;;;;;;9.95;70.28;98015.75;1709060;75;673931;-72
2023/05/18 00:22:03;;;;;;;0.65;0.55;;;;;;;10.04;70.61;98020.44;1701347;75;747950;-71
2023/05/18 00:24:33;;;;;;;0.70;0.45;;;;;;;10.01;70.79;98019.41;1709923;75;681348;-75
2023/05/18 00:27:03;;;;;;;0.85;0.50;;;;;;;9.94;70.91;98016.25;1700804;75;744720;-73
2023/05/18 00:29:33;;;;;;;0.55;0.50;;;;;;;9.93;71.24;98012.75;1695179;75;1860666;-72
2023/05/18 00:32:07;;;;;;;0.70;0.70;;;;;;;9.96;70.79;98013.81;1700669;75;745534;-72
2023/05/18 00:34:37;;;;;;;0.90;0.60;;;;;;;10.00;71.16;98012.41;1709956;75;681229;-72
2023/05/18 00:37:08;;;;;;;0.40;0.40;;;;;;;9.95;72.02;98012.28;1700839;75;751788;-73
2023/05/18 00:39:38;;;;;;;0.50;0.50;;;;;;;9.84;72.10;98003.81;1709110;75;678530;-73
2023/05/18 00:42:09;;;;;;;2.45;0.50;;;;;;;9.86;72.49;98004.88;1700899;75;741661;-73
2023/05/18 00:44:39;;;;;;;0.70;0.50;;;;;;;9.89;72.34;98006.69;1707586;75;871855;-71
2023/05/18 00:47:12;;;;;;;1.90;0.40;;;;;;;9.86;72.68;98009.56;1700756;75;756420;-73
2023/05/18 00:49:42;;;;;;;1.30;0.60;;;;;;;9.85;71.62;98008.81;1709099;75;672897;-72
2023/05/18 00:52:12;;;;;;;0.60;0.60;;;;;;;9.82;72.48;98013.25;1700329;75;800680;-73
2023/05/18 00:54:43;;;;;;;0.90;0.60;;;;;;;9.87;71.51;98009.13;1709634;75;677204;-73
2023/05/18 00:57:13;;;;;;;0.50;0.45;;;;;;;9.87;71.70;98020.06;1700852;75;742742;-72
2023/05/18 00:59:43;;;;;;;0.85;0.60;;;;;;;9.86;71.46;98023.25;1706846;75;908782;-74
2023/05/18 01:02:16;;;;;;;0.80;0.65;;;;;;;9.86;71.74;98015.81;1700219;75;758143;-72
2023/05/18 01:04:46;;;;;;;0.70;0.60;;;;;;;9.88;70.87;98012.63;1708877;75;792589;-73
2023/05/18 01:07:16;;;;;;;0.80;0.60;;;;;;;9.81;72.98;98019.16;1701101;75;760707;-74
2023/05/18 01:09:47;;;;;;;0.90;0.80;;;;;;;9.78;72.91;98018.13;1708522;75;713020;-72
2023/05/18 01:12:27;;;;;;;1.05;0.65;;;;;;;9.80;72.41;98010.22;1700990;75;753065;-72
2023/05/18 01:15:10;;;;;;;0.90;0.70;;;;;;;9.86;72.71;98021.28;1701946;75;683009;-72
2023/05/18 01:17:59;;;;;;;1.25;0.80;;;;;;;9.77;72.41;98024.81;1710283;75;677825;-73
2023/05/18 01:20:38;;;;;;;1.25;0.90;;;;;;;9.76;73.03;98017.06;1700425;75;751124;-71
2023/05/18 01:23:47;;;;;;;0.70;0.70;;;;;;;9.94;72.03;98024.44;1702294;75;675084;-73
2023/05/18 01:26:28;;;;;;;1.20;0.80;;;;;;;9.88;71.69;98018.84;1702172;75;675993;-72
2023/05/18 01:29:02;;;;;;;1.00;0.80;;;;;;;9.94;72.19;98010.78;1711168;75;675702;-73
2023/05/18 01:31:32;;;;;;;1.20;0.95;;;;;;;9.84;71.94;98012.00;1701990;75;752120;-73
2023/05/18 01:34:02;;;;;;;2.30;1.00;;;;;;;9.85;71.53;98013.53;1694783;75;1974768;-71
2023/05/18 01:36:33;;;;;;;1.60;0.90;;;;;;;9.78;73.06;98018.13;1698381;75;955347;-71
2023/05/18 01:39:04;;;;;;;2.60;1.10;;;;;;;9.84;72.16;98018.25;1709383;75;670956;-74
2023/05/18 01:41:41;;;;;;;1.70;1.10;;;;;;;9.84;72.39;98020.22;1698640;75;942916;-71
2023/05/18 01:44:17;;;;;;;1.35;0.90;;;;;;;9.78;72.82;98015.38;1702012;75;684707;-72
2023/05/18 01:46:55;;;;;;;0.60;0.60;;;;;;;9.76;73.95;98015.06;1696586;75;1820178;-73
2023/05/18 01:49:34;;;;;;;1.60;1.00;;;;;;;9.79;72.20;98005.22;1701124;75;679713;-72
2023/05/18 01:52:09;;;;;;;1.40;0.90;;;;;;;9.72;74.04;98009.03;1710486;75;670953;-73
2023/05/18 01:54:47;;;;;;;1.65;1.00;;;;;;;9.71;74.26;98004.03;1700164;75;764263;-71
2023/05/18 01:57:21;;;;;;;1.70;1.10;;;;;;;9.68;74.25;98002.97;1701786;75;688600;-75
2023/05/18 01:59:53;;;;;;;2.00;0.90;;;;;;;9.73;73.58;98013.28;1709717;75;674283;-72
2023/05/18 02:02:23;;;;;;;2.00;1.00;;;;;;;9.68;73.87;98018.63;1702167;75;676573;-73
2023/05/18 02:04:53;;;;;;;1.35;1.20;;;;;;;9.70;73.58;98003.28;1710718;75;681696;-72
2023/05/18 02:07:23;;;;;;;2.25;1.40;;;;;;;9.71;74.28;98012.97;1699798;75;855267;-74
2023/05/18 02:09:54;;;;;;;1.30;1.00;;;;;;;9.67;75.01;98008.88;1709628;75;675887;-73
2023/05/18 02:12:26;;;;;;;1.30;1.10;;;;;;;9.64;75.09;98007.84;1688133;75;1848458;-73
2023/05/18 02:14:57;;;;;;;1.70;1.05;;;;;;;9.69;74.32;98011.91;1710189;75;681138;-72
2023/05/18 02:17:27;;;;;;;1.30;1.00;;;;;;;9.79;75.06;98008.72;1701604;75;731910;-72
2023/05/18 02:19:58;;;;;;;1.15;1.05;;;;;;;9.66;75.24;98004.66;1709520;75;676956;-72
2023/05/18 02:22:28;;;;;;;2.40;1.40;;;;;;;9.68;75.46;98018.63;1702516;75;681076;-73
2023/05/18 02:24:58;;;;;;;1.40;1.10;;;;;;;9.68;75.63;98011.16;1710246;75;671251;-74
2023/05/18 02:27:32;;;;;;;1.30;0.90;;;;;;;9.65;76.04;98009.38;1701554;75;676185;-74
2023/05/18 02:30:03;;;;;;;1.40;0.80;;;;;;;9.67;75.47;98015.13;1709219;75;683333;-74
2023/05/18 02:32:37;;;;;;;2.30;1.20;;;;;;;9.58;76.66;98009.69;1701585;75;681298;-72
2023/05/18 02:35:09;;;;;;;2.00;1.40;;;;;;;9.64;75.74;98007.84;1710359;75;684977;-71
2023/05/18 02:37:42;;;;;;;2.70;1.30;;;;;;;9.53;77.66;98008.34;1703329;75;680252;-73
2023/05/18 02:40:15;;;;;;;2.40;1.30;;;;;;;9.59;76.34;98003.00;1712129;75;675564;-73
2023/05/18 02:42:48;;;;;;;2.45;1.60;;;;;;;9.59;77.35;98013.94;1703330;75;743544;-72
2023/05/18 02:45:19;;;;;;;1.70;1.30;;;;;;;9.62;77.04;98002.09;1710867;75;700129;-73
2023/05/18 02:47:49;;;;;;;2.75;1.45;;;;;;;9.62;76.78;98002.09;1701908;75;737844;-73
2023/05/18 02:50:20;;;;;;;3.40;1.50;;;;;;;9.70;77.33;98000.53;1708555;75;777699;-72
2023/05/18 02:52:51;;;;;;;2.20;1.20;;;;;;;9.60;78.25;98007.25;1701423;75;747321;-74
2023/05/18 02:55:21;;;;;;;6.60;1.85;;;;;;;9.54;77.77;97998.91;1706142;75;977736;-72
2023/05/18 02:57:55;;;;;;;3.65;1.70;;;;;;;9.56;77.11;97993.00;1701562;75;749214;-71
2023/05/18 03:00:28;;;;;;;2.30;1.40;;;;;;;9.53;78.26;97996.66;1709279;75;690320;-75
2023/05/18 03:02:59;;;;;;;2.65;1.50;;;;;;;9.53;78.04;97997.41;1700548;75;788146;-72
2023/05/18 03:05:29;;;;;;;2.10;1.70;;;;;;;9.55;78.40;97996.94;1710379;75;677201;-72
2023/05/18 03:08:01;;;;;;;2.30;1.70;;;;;;;9.54;78.17;97985.22;1697900;75;968863;-73
2023/05/18 03:10:31;;;;;;;2.90;1.60;;;;;;;9.53;78.75;97996.66;1709378;75;676151;-74
2023/05/18 03:13:04;;;;;;;3.85;2.20;;;;;;;9.54;78.57;97995.41;1699701;75;820762;-72
2023/05/18 03:15:36;;;;;;;3.50;1.70;;;;;;;9.49;79.65;97998.78;1697502;75;1788057;-76
2023/05/18 03:18:07;;;;;;;3.80;1.70;;;;;;;9.53;80.92;98002.88;1701862;75;748193;-73
2023/05/18 03:20:37;;;;;;;3.00;2.00;;;;;;;9.52;80.51;98001.34;1709342;75;681308;-75
2023/05/18 03:23:07;;;;;;;2.75;1.90;;;;;;;9.45;80.45;98009.84;1701538;75;737383;-73
2023/05/18 03:25:38;;;;;;;3.00;1.80;;;;;;;9.50;80.74;98003.00;1708595;75;854523;-76
2023/05/18 03:28:11;;;;;;;3.45;1.80;;;;;;;9.46;82.41;98019.59;1701934;75;750746;-78
2023/05/18 03:30:41;;;;;;;2.50;1.80;;;;;;;9.49;80.52;98018.66;1709529;75;675731;-74
2023/05/18 03:33:12;;;;;;;5.40;2.45;;;;;;;9.43;81.49;98015.03;1701170;75;755782;-73
2023/05/18 03:35:42;;;;;;;3.35;2.00;;;;;;;9.51;81.41;98016.22;1709252;75;813585;-71
2023/05/18 03:38:12;;;;;;;2.45;1.70;;;;;;;9.56;82.31;98012.88;1701959;75;756530;-74
2023/05/18 03:40:42;;;;;;;3.95;2.00;;;;;;;9.43;81.08;98008.78;1695191;75;1947280;-76
2023/05/18 03:43:15;;;;;;;4.10;2.50;;;;;;;9.43;83.22;98014.25;1700499;75;774518;-76
2023/05/18 03:45:45;;;;;;;4.50;2.50;;;;;;;9.48;82.35;98011.69;1696534;75;1848160;-72
2023/05/18 03:48:16;;;;;;;4.35;1.95;;;;;;;9.55;82.45;98011.38;1699924;75;803366;-75
2023/05/18 03:50:46;;;;;;;2.50;1.55;;;;;;;9.54;83.83;98009.09;1708008;75;832675;-74
2023/05/18 03:53:17;;;;;;;4.30;1.60;;;;;;;9.54;83.73;98009.09;1697891;75;986134;-74
2023/05/18 03:55:48;;;;;;;4.00;1.70;;;;;;;9.50;83.97;98019.41;1710659;75;673983;-74
2023/05/18 03:58:22;;;;;;;2.90;1.75;;;;;;;9.56;84.45;98010.13;1702377;75;740733;-73
2023/05/18 04:00:52;;;;;;;2.70;1.70;;;;;;;9.57;82.28;98025.34;1710030;75;678796;-73
2023/05/18 04:03:25;;;;;;;2.60;1.65;;;;;;;9.36;88.24;98018.84;1701656;75;730294;-73
2023/05/18 04:05:55;;;;;;;2.10;1.55;;;;;;;9.66;86.03;98023.78;1709486;75;671958;-76
2023/05/18 04:08:26;;;;;;;2.20;1.50;;;;;;;9.73;93.37;98028.94;1698874;75;915687;-73
2023/05/18 04:10:56;;;;;;;0.95;0.90;;;;;;;9.85;95.92;98030.69;1709028;75;673135;-72
2023/05/18 04:13:29;;;;;;;0.70;0.70;;;;;;;9.94;99.88;98035.38;1698258;75;884614;-72
2023/05/18 04:15:59;;;;;;;1.00;0.90;;;;;;;9.85;100.00;98038.16;1708012;75;744922;-72
2023/05/18 04:18:31;;;;;;;1.25;0.90;;;;;;;9.76;100.00;98036.19;1699613;75;846492;-73
2023/05/18 04:21:02;;;;;;;1.20;0.90;;;;;;;9.84;100.00;98040.13;1708673;75;762143;-73
2023/05/18 04:23:32;;;;;;;0.80;0.80;;;;;;;9.77;100.00;98040.47;1701866;75;743022;-71
2023/05/18 04:26:02;;;;;;;0.95;0.60;;;;;;;9.80;100.00;98037.56;1710354;75;672492;-72
2023/05/18 04:28:36;;;;;;;1.45;0.80;;;;;;;9.81;100.00;98038.31;1700168;75;784944;-72
2023/05/18 04:31:06;;;;;;;1.00;0.70;;;;;;;9.82;100.00;98039.84;1709306;75;672028;-74
2023/05/18 04:33:37;;;;;;;0.90;0.60;;;;;;;9.90;100.00;98041.00;1699901;75;740327;-74
2023/05/18 04:36:08;;;;;;;0.80;0.80;;;;;;;9.86;100.00;98045.91;1709795;75;676007;-72
2023/05/18 04:38:38;;;;;;;0.75;0.60;;;;;;;9.79;100.00;98046.97;1700161;75;751171;-73
2023/05/18 04:41:09;;;;;;;2.70;1.50;;;;;;;9.74;100.00;98047.63;1709339;75;674759;-73
2023/05/18 04:43:41;;;;;;;2.15;1.65;;;;;;;9.72;100.00;98047.31;1700799;75;746582;-73
2023/05/18 04:46:12;;;;;;;1.90;1.70;;;;;;;9.80;100.00;98056.69;1707369;75;900435;-71
2023/05/18 04:48:42;;;;;;;3.25;2.30;;;;;;;9.96;100.00;98052.09;1699019;75;829697;-71
2023/05/18 04:51:13;;;;;;;4.20;3.05;;;;;;;10.07;100.00;98055.06;1708938;75;676939;-71
2023/05/18 04:53:44;;;;;;;4.00;2.70;;;;;;;10.12;100.00;98057.19;1700904;75;747040;-71
2023/05/18 04:56:15;;;;;;;12.60;9.60;;;;;;;10.03;100.00;98055.25;1710164;75;671815;-72
2023/05/18 04:58:48;;;;;;;6.50;4.80;;;;;;;9.86;100.00;98056.84;1699533;75;779659;-71
2023/05/18 05:01:18;;;;;;;4.35;2.80;;;;;;;10.15;100.00;98063.69;1708946;75;677378;-72
2023/05/18 05:03:49;;;;;;;14.45;11.35;;;;;;;10.28;100.00;98060.78;1700582;75;751025;-72
2023/05/18 05:06:19;;;;;;;10.50;8.90;;;;;;;10.36;100.00;98064.72;1709324;75;670458;-72
2023/05/18 05:08:49;;;;;;;8.50;6.90;;;;;;;10.47;100.00;98064.97;1698120;75;934508;-72
2023/05/18 05:11:20;;;;;;;6.85;4.80;;;;;;;10.63;100.00;98064.56;1708719;75;680769;-71
2023/05/18 05:13:53;;;;;;;3.95;3.20;;;;;;;10.72;100.00;98061.00;1701103;75;741170;-72
2023/05/18 05:16:23;;;;;;;4.30;2.60;;;;;;;10.48;100.00;98062.97;1709901;75;671884;-73
2023/05/18 05:18:53;;;;;;;2.10;1.50;;;;;;;10.47;100.00;98064.22;1699320;75;806207;-72
2023/05/18 05:21:23;;;;;;;1.60;1.50;;;;;;;10.59;100.00;98063.22;1708488;75;678571;-71
2023/05/18 05:23:53;;;;;;;1.40;0.85;;;;;;;10.70;100.00;98062.69;1701852;75;747833;-71
2023/05/18 05:26:24;;;;;;;1.75;1.30;;;;;;;10.46;100.00;98068.91;1710634;75;670824;-71
2023/05/18 05:28:56;;;;;;;3.85;2.50;;;;;;;10.27;100.00;98070.19;1701168;75;749952;-71
2023/05/18 05:31:27;;;;;;;2.00;1.40;;;;;;;10.36;100.00;98070.94;1709470;75;674569;-73
2023/05/18 05:33:57;;;;;;;2.35;1.70;;;;;;;10.52;100.00;98069.78;1701682;75;715172;-72
2023/05/18 05:36:27;;;;;;;9.45;3.00;;;;;;;10.58;100.00;98069.91;1709320;75;743679;-71
2023/05/18 05:38:57;;;;;;;5.50;2.40;;;;;;;10.58;100.00;98070.69;1701662;75;762264;-75
2023/05/18 05:41:28;;;;;;;2.60;1.80;;;;;;;10.68;100.00;98063.16;1710682;75;669168;-71
2023/05/18 05:44:03;;;;;;;2.25;1.40;;;;;;;10.69;100.00;98067.41;1702755;75;750210;-72
2023/05/18 05:46:33;;;;;;;2.00;1.60;;;;;;;11.13;100.00;98069.53;1711758;75;669282;-73
2023/05/18 05:49:04;;;;;;;1.05;0.90;;;;;;;11.44;100.00;98071.84;1701357;75;766108;-76
2023/05/18 05:51:34;;;;;;;1.10;0.90;;;;;;;11.87;99.53;98072.34;1709675;75;672352;-71
2023/05/18 05:54:05;;;;;;;2.55;1.75;;;;;;;11.67;82.51;98070.25;1701454;75;737283;-73
2023/05/18 05:56:35;;;;;;;10.85;8.20;;;;;;;11.92;78.87;98068.94;1710097;75;669831;-74
2023/05/18 05:59:08;;;;;;;6.90;3.30;;;;;;;12.10;79.19;98067.97;1700492;75;723996;-72
2023/05/18 06:01:38;;;;;;;3.20;2.00;;;;;;;12.31;75.36;98073.50;1708495;75;795016;-73
2023/05/18 06:04:09;;;;;;;2.90;1.55;;;;;;;12.24;74.39;98073.91;1701165;75;743272;-73
2023/05/18 06:06:40;;;;;;;2.30;1.40;;;;;;;12.47;75.90;98080.50;1710244;75;671481;-74
2023/05/18 06:09:10;;;;;;;1.85;1.15;;;;;;;12.20;74.83;98081.59;1701124;75;739846;-75
2023/05/18 06:11:41;;;;;;;1.65;1.20;;;;;;;12.46;71.88;98079.75;1709626;75;676926;-74
2023/05/18 06:14:14;;;;;;;1.30;1.00;;;;;;;12.26;73.52;98077.69;1700997;75;754208;-73
2023/05/18 06:16:44;;;;;;;1.95;1.20;;;;;;;12.37;72.09;98079.84;1710110;75;678039;-71
2023/05/18 06:19:14;;;;;;;1.60;1.20;;;;;;;12.32;71.53;98078.53;1700868;75;760050;-75
2023/05/18 06:21:44;;;;;;;2.55;1.70;;;;;;;12.32;72.12;98075.03;1710344;75;677025;-71
2023/05/18 06:24:15;;;;;;;2.50;1.40;;;;;;;12.43;70.72;98082.66;1698100;75;933739;-72
2023/05/18 06:26:45;;;;;;;1.85;1.10;;;;;;;12.71;71.76;98085.81;1709803;75;669988;-71
2023/05/18 06:29:18;;;;;;;1.40;1.05;;;;;;;12.86;67.90;98077.50;1700902;75;751222;-72
2023/05/18 06:31:48;;;;;;;1.70;0.90;;;;;;;12.85;68.32;98087.00;1710118;75;670561;-73
2023/05/18 06:34:19;;;;;;;3.50;2.45;;;;;;;13.03;67.42;98081.19;1700865;75;760973;-71
2023/05/18 06:36:49;;;;;;;31.10;24.25;;;;;;;13.24;68.65;98094.94;1708037;75;847257;-72
2023/05/18 06:39:19;;;;;;;7.70;5.65;;;;;;;12.95;66.83;98089.09;1699451;75;793432;-74
2023/05/18 06:41:50;;;;;;;2.80;2.00;;;;;;;12.97;67.43;98097.63;1710016;75;672414;-74
2023/05/18 06:44:23;;;;;;;2.05;1.30;;;;;;;13.03;64.77;98094.19;1702321;75;750068;-71
2023/05/18 06:46:53;;;;;;;1.40;1.10;;;;;;;13.16;64.31;98091.84;1710983;75;679190;-73
2023/05/18 06:49:24;;;;;;;1.80;1.10;;;;;;;13.21;64.29;98093.91;1698473;75;948636;-75
2023/05/18 06:51:54;;;;;;;1.50;1.10;;;;;;;13.58;62.99;98093.31;1711975;75;670442;-72
2023/05/18 06:54:24;;;;;;;2.10;1.00;;;;;;;13.86;62.99;98096.34;1703475;75;749199;-72
2023/05/18 06:56:54;;;;;;;1.05;0.90;;;;;;;13.96;62.89;98092.16;1711329;75;694077;-70
2023/05/18 06:59:27;;;;;;;3.80;3.00;;;;;;;13.75;63.91;98094.22;1699207;75;907618;-74
2023/05/18 07:01:57;;;;;;;4.60;1.95;;;;;;;13.64;61.79;98088.63;1709421;75;682711;-70
2023/05/18 07:04:27;;;;;;;5.60;2.55;;;;;;;14.02;62.28;98092.97;1700555;75;775566;-72
2023/05/18 07:06:58;;;;;;;2.25;1.40;;;;;;;14.47;62.04;98098.78;1707052;75;798627;-73
2023/05/18 07:09:29;;;;;;;2.30;1.30;;;;;;;14.82;61.38;98097.78;1700395;75;749085;-73
2023/05/18 07:11:59;;;;;;;1.75;0.80;;;;;;;14.84;59.94;98098.03;1709930;75;673803;-70
2023/05/18 07:14:31;;;;;;;1.15;0.75;;;;;;;14.48;60.69;98102.31;1701458;75;733291;-70
2023/05/18 07:17:02;;;;;;;0.90;0.80;;;;;;;14.66;60.41;98098.44;1710267;75;678041;-70
2023/05/18 07:19:33;;;;;;;1.10;0.80;;;;;;;14.87;60.03;98097.03;1700567;75;741955;-70
2023/05/18 07:22:04;;;;;;;1.25;0.75;;;;;;;14.40;59.55;98104.00;1710012;75;681351;-72
2023/05/18 07:24:34;;;;;;;1.85;1.15;;;;;;;15.17;58.65;98106.94;1700608;75;752774;-72
2023/05/18 07:27:04;;;;;;;3.80;2.80;;;;;;;14.76;58.51;98102.50;1709864;75;673173;-72
2023/05/18 07:29:37;;;;;;;3.50;2.55;;;;;;;14.58;59.12;98100.16;1700208;75;735241;-75
2023/05/18 07:32:08;;;;;;;1.80;1.10;;;;;;;14.44;58.83;98094.25;1708573;75;790692;-72
2023/05/18 07:34:38;;;;;;;1.50;1.00;;;;;;;14.12;58.06;98101.81;1700850;75;745245;-71
2023/05/18 07:37:08;;;;;;;1.05;0.60;;;;;;;14.51;57.89;98097.81;1709846;75;681280;-71
2023/05/18 07:39:38;;;;;;;0.90;0.70;;;;;;;14.66;58.10;98106.69;1699694;75;750362;-71
2023/05/18 07:42:10;;;;;;;1.65;1.20;;;;;;;14.30;58.90;98097.91;1710105;75;670275;-69
2023/05/18 07:44:43;;;;;;;2.25;1.10;;;;;;;14.39;58.26;98103.25;1699752;75;743499;-70
2023/05/18 07:47:13;;;;;;;1.30;0.70;;;;;;;14.27;58.26;98105.16;1709851;75;670990;-70
2023/05/18 07:49:43;;;;;;;5.10;2.95;;;;;;;14.30;57.13;98094.41;1698966;75;806089;-70
2023/05/18 07:52:14;;;;;;;7.40;5.35;;;;;;;14.54;57.30;98111.38;1708103;75;844029;-71
2023/05/18 07:54:44;;;;;;;2.00;1.40;;;;;;;14.64;57.69;98096.16;1701511;75;743668;-72
2023/05/18 07:57:14;;;;;;;1.30;0.90;;;;;;;14.70;58.07;98096.22;1709328;75;672332;-70
2023/05/18 07:59:47;;;;;;;0.85;0.80;;;;;;;14.69;57.73;98100.94;1699838;75;734142;-71
2023/05/18 08:02:18;;;;;;;1.00;0.70;;;;;;;14.84;57.65;98098.03;1709672;75;672905;-72
2023/05/18 08:04:50;;;;;;;6.10;4.85;;;;;;;14.66;58.38;98096.41;1701992;75;750258;-73
2023/05/18 08:07:22;;;;;;;1.80;1.30;;;;;;;14.60;58.17;98095.66;1708143;75;778063;-76
2023/05/18 08:09:52;;;;;;;1.55;1.10;;;;;;;14.93;57.01;98094.28;1700044;75;744051;-74
2023/05/18 08:12:23;;;;;;;2.55;1.15;;;;;;;14.90;56.63;98101.56;1709378;75;674969;-71
2023/05/18 08:14:56;;;;;;;1.10;0.70;;;;;;;15.39;55.34;98103.47;1699436;75;849244;-72
2023/05/18 08:17:26;;;;;;;0.80;0.80;;;;;;;14.78;55.80;98102.00;1709713;75;670981;-72
2023/05/18 08:19:56;;;;;;;0.80;0.60;;;;;;;15.21;56.36;98097.16;1698148;75;916467;-72
2023/05/18 08:22:26;;;;;;;2.70;1.20;;;;;;;15.20;55.10;98090.16;1708417;75;672593;-73
2023/05/18 08:24:57;;;;;;;1.15;0.80;;;;;;;15.27;53.99;98094.41;1699431;75;747724;-72
2023/05/18 08:27:27;;;;;;;1.20;0.90;;;;;;;15.55;55.10;98095.25;1706314;75;887550;-71
2023/05/18 08:30:00;;;;;;;0.95;0.70;;;;;;;15.16;55.42;98102.69;1698585;75;768377;-73
2023/05/18 08:32:30;;;;;;;1.35;1.00;;;;;;;15.67;54.27;98098.78;1706307;75;804847;-72
2023/05/18 08:35:00;;;;;;;1.15;0.65;;;;;;;15.49;53.69;98097.25;1698961;75;825704;-72
2023/05/18 08:37:31;;;;;;;0.55;0.55;;;;;;;15.75;54.70;98094.31;1707834;75;857202;-72
2023/05/18 08:40:01;;;;;;;1.10;0.80;;;;;;;16.37;53.04;98099.81;1699556;75;749520;-71
2023/05/18 08:42:37;;;;;;;0.80;0.50;;;;;;;16.22;53.39;98093.81;1708553;75;675932;-73
2023/05/18 08:45:17;;;;;;;1.60;0.90;;;;;;;15.95;52.65;98089.81;1698648;75;910833;-72
2023/05/18 08:47:48;;;;;;;1.15;0.80;;;;;;;16.23;54.40;98094.56;1700715;75;787061;-72
2023/05/18 08:50:22;;;;;;;0.90;0.80;;;;;;;15.94;54.08;98088.28;1709064;75;674974;-71
2023/05/18 08:52:57;;;;;;;0.80;0.65;;;;;;;16.28;53.83;98083.50;1701782;75;676932;-72
2023/05/18 08:55:33;;;;;;;1.20;0.70;;;;;;;16.21;52.89;98086.03;1709635;75;672271;-72
2023/05/18 08:58:06;;;;;;;1.00;0.60;;;;;;;16.40;54.54;98082.25;1701704;75;690566;-71
2023/05/18 09:00:39;;;;;;;0.80;0.70;;;;;;;16.66;52.26;98083.19;1707769;75;671674;-71
2023/05/18 09:03:10;;;;;;;0.70;0.65;;;;;;;16.44;52.93;98090.28;1701433;75;720655;-72
2023/05/18 09:05:43;;;;;;;1.50;1.00;;;;;;;16.53;52.36;98081.72;1710366;75;672116;-73
2023/05/18 09:08:13;;;;;;;2.80;1.95;;;;;;;16.59;51.92;98078.94;1700959;75;748060;-72
2023/05/18 09:10:43;;;;;;;0.80;0.70;;;;;;;16.65;51.33;98085.22;1709091;75;677031;-72
2023/05/18 09:13:15;;;;;;;1.00;0.60;;;;;;;16.67;52.40;98082.69;1700101;75;736951;-71
2023/05/18 09:15:50;;;;;;;1.30;0.50;;;;;;;16.87;50.61;98075.38;1706441;75;917607;-75
2023/05/18 09:18:20;;;;;;;0.80;0.50;;;;;;;17.42;51.69;98079.88;1700043;75;739067;-73
2023/05/18 09:20:50;;;;;;;1.20;0.80;;;;;;;16.79;52.07;98072.38;1708123;75;673513;-74
2023/05/18 09:23:21;;;;;;;0.80;0.70;;;;;;;16.81;52.63;98069.84;1700528;75;735537;-75
2023/05/18 09:25:52;;;;;;;1.40;0.65;;;;;;;17.43;51.10;98070.31;1709379;75;678921;-73
2023/05/18 09:28:34;;;;;;;0.65;0.60;;;;;;;17.92;50.81;98069.00;1700841;75;746536;-75
2023/05/18 09:31:11;;;;;;;0.90;0.60;;;;;;;18.24;50.29;98069.22;1697775;75;908030;-72
2023/05/18 09:33:42;;;;;;;0.60;0.60;;;;;;;18.64;50.15;98075.13;1709423;75;674836;-71
2023/05/18 09:36:14;;;;;;;0.80;0.50;;;;;;;18.78;49.21;98065.66;1701246;75;674864;-72
2023/05/18 09:38:47;;;;;;;1.80;0.60;;;;;;;16.04;53.75;98075.00;1708631;75;744611;-72
2023/05/18 09:41:18;;;;;;;1.10;0.80;;;;;;;16.71;53.70;98069.34;1701185;75;680685;-71
2023/05/18 09:43:52;;;;;;;0.60;0.60;;;;;;;17.50;51.67;98065.50;1709440;75;676186;-74
2023/05/18 09:46:25;;;;;;;0.75;0.60;;;;;;;17.48;53.31;98073.56;1697527;75;741509;-73
2023/05/18 09:48:58;;;;;;;1.00;0.80;;;;;;;17.62;52.03;98070.44;1706226;75;916833;-72
2023/05/18 09:51:29;;;;;;;1.65;0.65;;;;;;;17.99;49.95;98060.13;1698621;75;739642;-70
2023/05/18 09:54:03;;;;;;;1.20;0.50;;;;;;;18.88;48.17;98063.28;1709768;75;674998;-75
2023/05/18 09:56:37;;;;;;;1.30;0.60;;;;;;;17.00;53.64;98059.72;1700813;75;747831;-73
2023/05/18 09:59:15;;;;;;;14.70;9.90;;;;;;;18.42;51.01;98063.00;1709058;75;677777;-73
2023/05/18 10:02:07;;;;;;;5.00;3.65;;;;;;;17.50;51.83;98052.41;1701021;75;747098;-75
2023/05/18 10:04:42;;;;;;;3.20;2.55;;;;;;;17.50;52.64;98055.16;1701966;75;713164;-71
2023/05/18 10:07:14;;;;;;;2.60;1.40;;;;;;;16.64;52.42;98050.50;1709222;75;795046;-72
2023/05/18 10:09:46;;;;;;;0.90;0.70;;;;;;;16.59;54.33;98054.81;1702928;75;675262;-73
2023/05/18 10:12:18;;;;;;;0.75;0.65;;;;;;;17.03;55.15;98055.19;1709701;75;675080;-74
2023/05/18 10:14:51;;;;;;;1.15;0.70;;;;;;;18.06;52.42;98043.69;1700416;75;750679;-72
2023/05/18 10:17:26;;;;;;;1.20;0.70;;;;;;;17.45;53.32;98050.44;1709586;75;685333;-73
2023/05/18 10:19:59;;;;;;;0.60;0.60;;;;;;;18.46;51.73;98052.38;1699690;75;730728;-74
2023/05/18 10:22:31;;;;;;;0.60;0.60;;;;;;;18.59;49.57;98056.53;1710141;75;673103;-76
2023/05/18 10:25:02;;;;;;;0.50;0.50;;;;;;;18.06;50.00;98040.16;1701193;75;753279;-73
2023/05/18 10:27:38;;;;;;;1.30;0.70;;;;;;;18.31;51.38;98043.72;1709507;75;674520;-75
2023/05/18 10:30:12;;;;;;;0.95;0.75;;;;;;;18.18;50.81;98040.81;1700128;75;743993;-74
2023/05/18 10:32:46;;;;;;;1.00;0.50;;;;;;;18.81;49.66;98039.69;1709551;75;679105;-71
2023/05/18 10:35:17;;;;;;;0.70;0.50;;;;;;;19.28;49.85;98038.56;1698234;75;914563;-74
2023/05/18 10:37:49;;;;;;;0.60;0.50;;;;;;;19.39;49.17;98046.00;1709755;75;672615;-71
2023/05/18 10:40:21;;;;;;;0.75;0.60;;;;;;;19.59;49.61;98035.06;1700217;75;757584;-71
2023/05/18 10:42:52;;;;;;;0.80;0.70;;;;;;;18.90;50.53;98036.50;1708989;75;739433;-75
2023/05/18 10:45:23;;;;;;;0.50;0.50;;;;;;;18.88;49.03;98039.09;1700538;75;740880;-74
2023/05/18 10:47:57;;;;;;;1.20;0.70;;;;;;;19.04;50.72;98040.13;1709443;75;686279;-71
2023/05/18 10:50:27;;;;;;;0.80;0.50;;;;;;;19.99;48.95;98035.22;1674375;75;2866321;-71
2023/05/18 10:52:58;;;;;;;1.00;0.60;;;;;;;20.07;48.07;98038.13;1708848;75;675609;-73
2023/05/18 10:55:30;;;;;;;0.80;0.50;;;;;;;20.89;48.82;98034.84;1700045;75;743231;-75
2023/05/18 10:58:06;;;;;;;0.50;0.50;;;;;;;20.54;47.83;98017.28;1708828;75;676716;-74
2023/05/18 11:00:39;;;;;;;1.20;0.60;;;;;;;20.99;47.59;98027.53;1699774;75;736651;-71
2023/05/18 11:03:16;;;;;;;4.25;2.80;;;;;;;20.81;47.72;98027.16;1709281;75;683416;-73
2023/05/18 11:05:50;;;;;;;1.55;1.20;;;;;;;21.56;45.83;98033.41;1700204;75;734602;-72
2023/05/18 11:08:29;;;;;;;1.70;0.90;;;;;;;20.95;45.51;98027.13;1709755;75;681689;-73
2023/05/18 11:11:06;;;;;;;3.85;2.30;;;;;;;21.10;45.19;98023.78;1698854;75;756681;-73
2023/05/18 11:13:38;;;;;;;5.20;2.90;;;;;;;20.43;47.61;98021.78;1702102;75;754593;-74
2023/05/18 11:16:10;;;;;;;2.10;1.30;;;;;;;20.11;47.00;98023.91;1709700;75;673281;-71
2023/05/18 11:18:49;;;;;;;3.00;2.20;;;;;;;18.82;51.17;98029.31;1702596;75;695750;-73
2023/05/18 11:21:24;;;;;;;4.70;2.65;;;;;;;19.97;48.22;98018.31;1708619;75;683860;-74
2023/05/18 11:24:20;;;;;;;2.15;1.40;;;;;;;20.92;49.49;98025.41;1700331;75;738622;-76
2023/05/18 11:26:53;;;;;;;1.60;0.80;;;;;;;19.75;47.94;98021.47;1699828;75;680245;-73
2023/05/18 11:29:26;;;;;;;0.50;0.50;;;;;;;19.73;48.67;98027.56;1706943;75;696367;-72
2023/05/18 11:31:58;;;;;;;0.60;0.50;;;;;;;20.77;46.90;98017.63;1700208;75;702087;-73
2023/05/18 11:34:48;;;;;;;1.90;1.00;;;;;;;19.67;48.09;98024.06;1708035;75;866602;-73
2023/05/18 11:37:52;;;;;;;0.65;0.65;;;;;;;19.88;49.58;98020.75;1700805;75;747072;-72
2023/05/18 11:40:50;;;;;;;0.60;0.50;;;;;;;19.87;49.69;98019.28;1700650;75;754672;-70
2023/05/18 11:43:25;;;;;;;1.90;1.00;;;;;;;19.57;51.00;98026.50;1701172;75;676920;-74
2023/05/18 11:45:59;;;;;;;0.80;0.70;;;;;;;20.00;51.23;98022.81;1709420;75;673300;-72
2023/05/18 11:48:31;;;;;;;1.25;0.75;;;;;;;19.30;51.41;98025.66;1698941;75;745439;-74
2023/05/18 11:51:02;;;;;;;1.30;0.80;;;;;;;19.74;50.71;98023.50;1709083;75;696531;-69